createdAt,value
2018-01-30T00:00:11.757Z,1.80
2018-01-30T00:02:40.007Z,1.23
2018-01-30T00:05:09.025Z,1.13
2018-01-30T00:07:37.268Z,0.90
2018-01-30T00:10:06.282Z,0.77
2018-01-30T00:12:34.544Z,0.90
2018-01-30T00:15:03.551Z,0.80
2018-01-30T00:17:31.806Z,0.60
2018-01-30T00:20:00.817Z,0.60
2018-01-30T00:22:29.068Z,0.73
2018-01-30T00:24:58.083Z,0.60
2018-01-30T00:27:26.329Z,0.60
2018-01-30T00:29:54.577Z,0.90
2018-01-30T00:32:22.831Z,0.80
2018-01-30T00:34:51.100Z,0.70
2018-01-30T00:37:19.383Z,1.00
2018-01-30T00:39:47.620Z,1.00
2018-01-30T00:42:16.639Z,0.77
2018-01-30T00:44:44.895Z,1.17
2018-01-30T00:47:13.932Z,0.93
2018-01-30T00:49:42.206Z,1.00
2018-01-30T00:52:10.513Z,0.80
2018-01-30T00:54:38.809Z,0.77
2018-01-30T00:57:07.114Z,0.83
2018-01-30T00:59:35.393Z,1.03
2018-01-30T01:02:03.671Z,0.90
2018-01-30T01:04:31.932Z,0.80
2018-01-30T01:07:00.199Z,0.77
2018-01-30T01:09:29.358Z,1.13
2018-01-30T01:11:57.685Z,0.93
2018-01-30T01:14:26.107Z,0.77
2018-01-30T01:16:54.439Z,1.00
2018-01-30T01:19:22.810Z,1.00
2018-01-30T01:21:51.900Z,0.73
2018-01-30T01:24:21.001Z,0.90
2018-01-30T01:26:49.312Z,0.90
2018-01-30T01:29:17.624Z,1.17
2018-01-30T01:31:45.942Z,1.37
2018-01-30T01:34:14.258Z,1.40
2018-01-30T01:36:42.558Z,1.20
2018-01-30T01:39:10.847Z,0.90
2018-01-30T01:41:39.157Z,1.07
2018-01-30T01:44:07.433Z,1.33
2018-01-30T01:46:35.713Z,1.47
2018-01-30T01:49:04.009Z,1.30
2018-01-30T01:51:32.312Z,1.57
2018-01-30T01:54:00.651Z,1.37
2018-01-30T01:56:28.962Z,1.23
2018-01-30T01:58:57.274Z,1.40
2018-01-30T02:01:25.598Z,0.93
2018-01-30T02:03:53.921Z,2.20
2018-01-30T02:06:23.004Z,2.20
2018-01-30T02:08:52.086Z,1.43
2018-01-30T02:11:20.430Z,1.37
2018-01-30T02:13:48.727Z,1.90
2018-01-30T02:16:17.042Z,1.70
2018-01-30T02:18:45.355Z,1.70
2018-01-30T02:21:13.650Z,1.80
2018-01-30T02:23:42.727Z,2.00
2018-01-30T02:26:11.043Z,1.93
2018-01-30T02:28:39.355Z,1.60
2018-01-30T02:31:07.656Z,1.80
2018-01-30T02:33:36.003Z,2.27
2018-01-30T02:36:04.309Z,1.90
2018-01-30T02:38:32.645Z,1.73
2018-01-30T02:41:01.710Z,1.37
2018-01-30T02:43:30.025Z,1.30
2018-01-30T02:45:59.121Z,1.53
2018-01-30T02:48:28.199Z,1.30
2018-01-30T02:50:56.507Z,1.80
2018-01-30T02:53:24.830Z,2.10
2018-01-30T02:55:53.173Z,1.70
2018-01-30T02:58:22.210Z,1.80
2018-01-30T03:00:50.509Z,1.73
2018-01-30T03:03:19.617Z,1.80
2018-01-30T03:05:47.915Z,1.80
2018-01-30T03:08:16.228Z,2.10
2018-01-30T03:10:44.572Z,2.10
2018-01-30T03:13:12.895Z,1.87
2018-01-30T03:15:41.216Z,1.97
2018-01-30T03:18:09.531Z,1.73
2018-01-30T03:20:37.879Z,1.90
2018-01-30T03:23:06.192Z,1.50
2018-01-30T03:25:34.501Z,1.83
2018-01-30T03:28:03.561Z,1.87
2018-01-30T03:30:31.890Z,2.17
2018-01-30T03:33:00.194Z,2.00
2018-01-30T03:35:28.526Z,1.63
2018-01-30T03:37:57.620Z,2.60
2018-01-30T03:40:25.915Z,2.00
2018-01-30T03:42:54.193Z,1.70
2018-01-30T03:45:22.489Z,1.60
2018-01-30T03:47:50.846Z,2.30
2018-01-30T03:50:19.142Z,1.73
2018-01-30T03:52:47.459Z,1.73
2018-01-30T03:55:15.750Z,3.10
2018-01-30T03:57:44.853Z,2.50
2018-01-30T04:00:13.944Z,1.63
2018-01-30T04:02:42.274Z,2.20
2018-01-30T04:05:10.577Z,2.27
2018-01-30T04:07:38.978Z,2.07
2018-01-30T04:10:08.108Z,1.90
2018-01-30T04:12:36.406Z,2.67
2018-01-30T04:15:04.779Z,2.07
2018-01-30T04:17:33.110Z,2.05
2018-01-30T04:20:01.422Z,2.15
2018-01-30T04:22:29.726Z,2.20
2018-01-30T04:24:58.051Z,2.55
2018-01-30T04:27:26.360Z,2.65
2018-01-30T04:29:54.683Z,2.10
2018-01-30T04:32:23.001Z,1.95
2018-01-30T04:34:51.318Z,2.20
2018-01-30T04:37:19.662Z,2.25
2018-01-30T04:39:48.735Z,1.87
2018-01-30T04:42:17.049Z,2.12
2018-01-30T04:44:45.352Z,2.40
2018-01-30T04:47:14.413Z,2.30
2018-01-30T04:49:42.716Z,2.87
2018-01-30T04:52:11.003Z,2.45
2018-01-30T04:54:39.338Z,2.10
2018-01-30T04:57:08.437Z,1.92
2018-01-30T04:59:36.782Z,2.20
2018-01-30T05:02:05.131Z,2.42
2018-01-30T05:04:34.225Z,2.37
2018-01-30T05:07:03.381Z,1.80
2018-01-30T05:09:31.705Z,2.40
2018-01-30T05:12:00.799Z,2.17
2018-01-30T05:14:29.895Z,2.15
2018-01-30T05:16:58.995Z,2.20
2018-01-30T05:19:27.327Z,2.47
2018-01-30T05:21:55.646Z,2.35
2018-01-30T05:24:23.935Z,2.00
2018-01-30T05:26:52.252Z,1.70
2018-01-30T05:29:20.584Z,2.27
2018-01-30T05:31:49.700Z,2.30
2018-01-30T05:34:18.009Z,2.90
2018-01-30T05:36:46.332Z,2.20
2018-01-30T05:39:14.638Z,2.30
2018-01-30T05:41:42.922Z,2.10
2018-01-30T05:44:12.001Z,3.47
2018-01-30T05:46:40.292Z,2.95
2018-01-30T05:49:08.614Z,2.70
2018-01-30T05:51:37.689Z,2.20
2018-01-30T05:54:06.008Z,2.83
2018-01-30T05:56:34.310Z,3.00
2018-01-30T05:59:02.651Z,2.25
2018-01-30T06:01:31.753Z,2.60
2018-01-30T06:04:00.824Z,2.85
2018-01-30T06:06:29.909Z,2.92
2018-01-30T06:08:58.239Z,3.35
2018-01-30T06:11:26.601Z,3.10
2018-01-30T06:13:54.907Z,2.75
2018-01-30T06:16:23.219Z,3.30
2018-01-30T06:18:51.559Z,3.25
2018-01-30T06:21:19.853Z,3.83
2018-01-30T06:23:48.178Z,3.90
2018-01-30T06:26:16.491Z,3.42
2018-01-30T06:28:44.776Z,3.75
2018-01-30T06:31:13.131Z,4.15
2018-01-30T06:33:41.472Z,4.28
2018-01-30T06:36:10.556Z,4.45
2018-01-30T06:38:38.887Z,3.33
2018-01-30T06:41:07.164Z,3.65
2018-01-30T06:43:35.482Z,3.47
2018-01-30T06:46:03.786Z,3.70
2018-01-30T06:48:32.065Z,3.97
2018-01-30T06:51:00.351Z,3.80
2018-01-30T06:53:28.634Z,3.67
2018-01-30T06:55:56.878Z,4.00
2018-01-30T06:58:26.026Z,3.78
2018-01-30T07:00:54.398Z,4.00
2018-01-30T07:03:22.745Z,3.45
2018-01-30T07:05:51.083Z,4.10
2018-01-30T07:08:19.408Z,3.35
2018-01-30T07:10:47.751Z,3.12
2018-01-30T07:13:16.060Z,3.60
2018-01-30T07:15:44.511Z,2.97
2018-01-30T07:18:12.813Z,4.20
2018-01-30T07:20:41.171Z,3.50
2018-01-30T07:23:10.318Z,3.95
2018-01-30T07:25:38.813Z,4.37
2018-01-30T07:28:07.130Z,4.00
2018-01-30T07:30:35.461Z,2.80
2018-01-30T07:33:03.904Z,3.50
2018-01-30T07:35:32.210Z,3.33
2018-01-30T07:38:00.530Z,2.95
2018-01-30T07:40:28.825Z,3.33
2018-01-30T07:42:57.882Z,3.77
2018-01-30T07:45:26.182Z,3.10
2018-01-30T07:47:55.269Z,3.30
2018-01-30T07:50:23.574Z,3.47
2018-01-30T07:52:51.986Z,4.85
2018-01-30T07:55:20.316Z,4.37
2018-01-30T07:57:49.409Z,4.25
2018-01-30T08:00:18.492Z,3.00
2018-01-30T08:02:46.850Z,3.07
2018-01-30T08:05:15.193Z,2.60
2018-01-30T08:07:43.524Z,5.03
2018-01-30T08:10:11.838Z,6.00
2018-01-30T08:12:40.206Z,6.10
2018-01-30T08:15:09.282Z,4.17
2018-01-30T08:17:38.358Z,4.50
2018-01-30T08:20:06.711Z,5.15
2018-01-30T08:22:35.036Z,4.30
2018-01-30T08:25:03.382Z,4.50
2018-01-30T08:27:31.722Z,3.78
2018-01-30T08:30:00.069Z,3.77
2018-01-30T08:32:29.163Z,4.00
2018-01-30T08:34:58.354Z,2.90
2018-01-30T08:37:26.688Z,2.40
2018-01-30T08:39:55.797Z,2.87
2018-01-30T08:42:24.118Z,2.30
2018-01-30T08:44:52.432Z,2.08
2018-01-30T08:47:20.761Z,1.42
2018-01-30T08:49:49.089Z,2.17
2018-01-30T08:52:17.445Z,3.08
2018-01-30T08:54:45.894Z,2.47
2018-01-30T08:57:15.009Z,2.20
2018-01-30T08:59:43.327Z,2.20
2018-01-30T09:02:11.716Z,2.25
2018-01-30T09:04:40.038Z,2.40
2018-01-30T09:07:09.129Z,2.20
2018-01-30T09:09:38.205Z,2.20
2018-01-30T09:12:06.557Z,1.97
2018-01-30T09:14:34.929Z,1.83
2018-01-30T09:17:03.293Z,2.33
2018-01-30T09:19:31.658Z,1.67
2018-01-30T09:21:59.978Z,1.57
2018-01-30T09:24:28.284Z,1.50
2018-01-30T09:26:56.624Z,1.57
2018-01-30T09:29:24.964Z,1.47
2018-01-30T09:31:53.295Z,1.63
2018-01-30T09:34:21.633Z,1.60
2018-01-30T09:36:49.967Z,1.73
2018-01-30T09:39:18.344Z,1.73
2018-01-30T09:41:46.671Z,1.87
2018-01-30T09:44:15.057Z,1.93
2018-01-30T09:46:43.396Z,1.90
2018-01-30T09:49:11.793Z,2.00
2018-01-30T09:51:40.105Z,1.30
2018-01-30T09:54:08.460Z,1.60
2018-01-30T09:56:36.794Z,1.63
2018-01-30T09:59:05.970Z,1.30
2018-01-30T10:01:34.321Z,1.70
2018-01-30T10:04:02.665Z,1.80
2018-01-30T10:06:31.005Z,1.33
2018-01-30T10:08:59.327Z,1.53
2018-01-30T10:11:27.691Z,1.70
2018-01-30T10:13:56.795Z,1.30
2018-01-30T10:16:25.121Z,1.60
2018-01-30T10:18:53.495Z,1.20
2018-01-30T10:21:21.812Z,1.40
2018-01-30T10:23:50.173Z,1.90
2018-01-30T10:26:18.516Z,1.80
2018-01-30T10:28:46.819Z,2.00
2018-01-30T10:31:15.174Z,1.50
2018-01-30T10:33:44.257Z,1.40
2018-01-30T10:36:12.608Z,1.50
2018-01-30T10:38:40.940Z,1.50
2018-01-30T10:41:09.288Z,1.77
2018-01-30T10:43:37.634Z,1.60
2018-01-30T10:46:05.960Z,1.50
2018-01-30T10:48:34.349Z,2.27
2018-01-30T10:51:02.720Z,1.00
2018-01-30T10:53:31.047Z,1.10
2018-01-30T10:55:59.413Z,1.30
2018-01-30T10:58:27.706Z,1.20
2018-01-30T11:00:56.132Z,1.20
2018-01-30T11:03:24.430Z,1.63
2018-01-30T11:05:53.589Z,1.27
2018-01-30T11:08:21.915Z,1.37
2018-01-30T11:10:50.271Z,1.20
2018-01-30T11:13:18.611Z,1.10
2018-01-30T11:15:47.016Z,1.20
2018-01-30T11:18:15.326Z,1.10
2018-01-30T11:20:44.442Z,1.07
2018-01-30T11:23:12.827Z,1.20
2018-01-30T11:25:41.249Z,1.70
2018-01-30T11:28:09.708Z,1.70
2018-01-30T11:30:38.058Z,1.63
2018-01-30T11:33:06.479Z,1.83
2018-01-30T11:35:34.799Z,1.90
2018-01-30T11:38:03.881Z,1.63
2018-01-30T11:40:32.169Z,1.50
2018-01-30T11:43:00.531Z,1.60
2018-01-30T11:45:29.652Z,1.40
2018-01-30T11:47:57.988Z,1.70
2018-01-30T11:50:27.083Z,1.63
2018-01-30T11:52:55.436Z,1.40
2018-01-30T11:55:23.768Z,1.00
2018-01-30T11:57:52.110Z,1.53
2018-01-30T12:00:20.499Z,1.77
2018-01-30T12:02:48.845Z,1.47
2018-01-30T12:05:17.167Z,1.93
2018-01-30T12:07:45.530Z,1.87
2018-01-30T12:10:13.865Z,1.87
2018-01-30T12:12:42.175Z,1.43
2018-01-30T12:15:11.270Z,1.77
2018-01-30T12:17:41.140Z,2.00
2018-01-30T12:20:09.475Z,2.13
2018-01-30T12:22:37.805Z,1.83
2018-01-30T12:25:06.142Z,1.50
2018-01-30T12:27:34.487Z,2.50
2018-01-30T12:30:02.826Z,1.93
2018-01-30T12:32:31.137Z,1.80
2018-01-30T12:34:59.478Z,1.50
2018-01-30T12:37:27.798Z,1.87
2018-01-30T12:39:56.131Z,1.90
2018-01-30T12:42:24.430Z,1.93
2018-01-30T12:44:52.742Z,1.60
2018-01-30T12:47:21.160Z,1.40
2018-01-30T12:49:49.485Z,1.83
2018-01-30T12:52:17.802Z,2.00
2018-01-30T12:54:46.215Z,2.20
2018-01-30T12:57:14.752Z,1.60
2018-01-30T12:59:43.095Z,1.60
2018-01-30T13:02:11.470Z,1.60
2018-01-30T13:04:39.806Z,1.87
2018-01-30T13:07:08.147Z,1.50
2018-01-30T13:09:36.568Z,1.73
2018-01-30T13:12:05.068Z,1.50
2018-01-30T13:14:33.413Z,1.47
2018-01-30T13:17:01.796Z,1.47
2018-01-30T13:19:30.146Z,1.77
2018-01-30T13:21:58.533Z,1.93
2018-01-30T13:24:26.922Z,1.67
2018-01-30T13:26:55.281Z,1.97
2018-01-30T13:29:23.636Z,1.80
2018-01-30T13:31:53.192Z,1.67
2018-01-30T13:34:21.528Z,1.83
2018-01-30T13:36:49.920Z,1.70
2018-01-30T13:39:18.263Z,1.47
2018-01-30T13:41:46.579Z,1.80
2018-01-30T13:44:14.923Z,1.70
2018-01-30T13:46:43.245Z,2.20
2018-01-30T13:49:12.395Z,1.67
2018-01-30T13:51:40.734Z,1.90
2018-01-30T13:54:09.093Z,2.13
2018-01-30T13:56:38.202Z,2.00
2018-01-30T13:59:06.566Z,2.10
2018-01-30T14:01:35.699Z,2.07
2018-01-30T14:04:04.055Z,1.90
2018-01-30T14:06:32.386Z,1.77
2018-01-30T14:09:00.706Z,1.67
2018-01-30T14:11:29.026Z,1.67
2018-01-30T14:13:57.362Z,1.80
2018-01-30T14:16:25.687Z,2.67
2018-01-30T14:18:54.774Z,1.97
2018-01-30T14:21:23.124Z,2.10
2018-01-30T14:23:51.471Z,1.70
2018-01-30T14:26:20.604Z,1.80
2018-01-30T14:28:48.921Z,1.83
2018-01-30T14:31:17.288Z,1.67
2018-01-30T14:33:45.595Z,1.70
2018-01-30T14:36:13.903Z,1.80
2018-01-30T14:38:42.236Z,1.70
2018-01-30T14:41:10.559Z,1.73
2018-01-30T14:43:38.881Z,1.40
2018-01-30T14:46:07.240Z,1.90
2018-01-30T14:48:35.667Z,2.00
2018-01-30T14:51:04.773Z,1.60
2018-01-30T14:53:34.842Z,2.33
2018-01-30T14:56:03.166Z,2.13
2018-01-30T14:58:32.271Z,2.10
2018-01-30T15:01:01.365Z,1.50
2018-01-30T15:03:29.741Z,2.00
2018-01-30T15:05:58.826Z,2.03
2018-01-30T15:08:28.090Z,2.43
2018-01-30T15:10:56.389Z,1.67
2018-01-30T15:13:24.701Z,1.90
2018-01-30T15:15:53.012Z,2.67
2018-01-30T15:18:21.356Z,1.50
2018-01-30T15:20:49.765Z,1.77
2018-01-30T15:23:18.075Z,2.00
2018-01-30T15:25:47.190Z,1.83
2018-01-30T15:28:16.271Z,1.93
2018-01-30T15:30:45.392Z,1.50
2018-01-30T15:33:13.728Z,2.27
2018-01-30T15:35:42.037Z,1.63
2018-01-30T15:38:10.365Z,1.77
2018-01-30T15:40:38.680Z,1.70
2018-01-30T15:43:07.815Z,1.70
2018-01-30T15:45:36.175Z,1.97
2018-01-30T15:48:04.535Z,2.10
2018-01-30T15:50:33.633Z,2.10
2018-01-30T15:53:02.737Z,1.77
2018-01-30T15:55:31.066Z,1.50
2018-01-30T15:57:59.407Z,1.80
2018-01-30T16:00:27.734Z,2.00
2018-01-30T16:02:56.043Z,2.30
2018-01-30T16:05:24.379Z,1.90
2018-01-30T16:07:52.701Z,2.10
2018-01-30T16:10:21.037Z,1.70
2018-01-30T16:12:49.380Z,2.00
2018-01-30T16:15:18.513Z,2.40
2018-01-30T16:17:46.838Z,1.80
2018-01-30T16:20:15.153Z,1.70
2018-01-30T16:22:43.469Z,2.40
2018-01-30T16:25:12.572Z,2.23
2018-01-30T16:27:41.650Z,2.50
2018-01-30T16:30:10.766Z,1.80
2018-01-30T16:32:39.110Z,1.90
2018-01-30T16:35:07.441Z,1.90
2018-01-30T16:37:35.791Z,2.17
2018-01-30T16:40:04.898Z,1.83
2018-01-30T16:42:33.194Z,2.20
2018-01-30T16:45:01.504Z,2.17
2018-01-30T16:47:29.860Z,2.43
2018-01-30T16:49:58.223Z,2.60
2018-01-30T16:52:26.610Z,2.47
2018-01-30T16:54:55.008Z,2.40
2018-01-30T16:57:23.329Z,2.50
2018-01-30T16:59:52.415Z,2.57
2018-01-30T17:02:21.520Z,4.03
2018-01-30T17:04:50.586Z,2.80
2018-01-30T17:07:18.911Z,2.80
2018-01-30T17:09:47.278Z,3.00
2018-01-30T17:12:15.642Z,2.50
2018-01-30T17:14:44.742Z,2.70
2018-01-30T17:17:13.837Z,3.07
2018-01-30T17:19:42.909Z,4.37
2018-01-30T17:22:11.251Z,3.20
2018-01-30T17:24:39.630Z,2.93
2018-01-30T17:27:07.962Z,5.07
2018-01-30T17:29:37.070Z,5.73
2018-01-30T17:32:05.403Z,5.20
2018-01-30T17:34:33.745Z,5.27
2018-01-30T17:37:02.089Z,4.57
2018-01-30T17:39:30.397Z,4.13
2018-01-30T17:41:58.691Z,7.50
2018-01-30T17:44:27.005Z,5.80
2018-01-30T17:46:56.155Z,7.50
2018-01-30T17:49:24.488Z,10.87
2018-01-30T17:51:53.596Z,17.10
2018-01-30T17:54:21.920Z,9.90
2018-01-30T17:56:50.248Z,15.00
2018-01-30T17:59:19.393Z,14.97
2018-01-30T18:01:47.730Z,14.13
2018-01-30T18:04:16.147Z,10.97
2018-01-30T18:06:44.512Z,11.80
2018-01-30T18:09:12.905Z,10.93
2018-01-30T18:11:41.237Z,8.10
2018-01-30T18:14:10.468Z,7.80
2018-01-30T18:16:38.900Z,8.30
2018-01-30T18:19:08.088Z,8.20
2018-01-30T18:21:36.555Z,6.97
2018-01-30T18:24:04.991Z,7.73
2018-01-30T18:26:33.421Z,8.07
2018-01-30T18:29:01.854Z,9.43
2018-01-30T18:31:30.239Z,7.30
2018-01-30T18:33:58.619Z,6.03
2018-01-30T18:36:26.994Z,8.00
2018-01-30T18:38:55.469Z,6.10
2018-01-30T18:41:23.773Z,6.17
2018-01-30T18:43:52.053Z,6.33
2018-01-30T18:46:20.382Z,5.70
2018-01-30T18:48:48.755Z,6.23
2018-01-30T18:51:17.189Z,4.63
2018-01-30T18:53:45.624Z,3.70
2018-01-30T18:56:14.031Z,4.80
2018-01-30T18:58:42.415Z,5.47
2018-01-30T19:01:10.794Z,5.93
2018-01-30T19:03:39.162Z,4.85
2018-01-30T19:06:07.498Z,4.87
2018-01-30T19:08:35.955Z,4.07
2018-01-30T19:11:04.370Z,3.50
2018-01-30T19:13:32.716Z,3.60
2018-01-30T19:16:01.164Z,4.43
2018-01-30T19:18:29.576Z,4.17
2018-01-30T19:20:58.012Z,4.00
2018-01-30T19:23:26.473Z,4.30
2018-01-30T19:25:54.910Z,3.55
2018-01-30T19:28:23.390Z,4.00
2018-01-30T19:30:51.813Z,3.00
2018-01-30T19:33:20.253Z,3.50
2018-01-30T19:35:49.410Z,3.27
2018-01-30T19:38:17.750Z,3.53
2018-01-30T19:40:46.101Z,3.62
2018-01-30T19:43:15.171Z,3.75
2018-01-30T19:45:43.547Z,4.00
2018-01-30T19:48:11.905Z,3.70
2018-01-30T19:50:40.384Z,5.03
2018-01-30T19:53:08.643Z,5.10
2018-01-30T19:55:36.919Z,4.60
2018-01-30T19:58:05.196Z,5.63
2018-01-30T20:00:33.490Z,7.43
2018-01-30T20:03:01.820Z,6.27
2018-01-30T20:05:30.069Z,6.90
2018-01-30T20:07:58.315Z,6.40
2018-01-30T20:10:26.634Z,6.97
2018-01-30T20:12:54.867Z,6.80
2018-01-30T20:15:23.165Z,7.70
2018-01-30T20:17:51.401Z,6.60
2018-01-30T20:20:19.679Z,7.37
2018-01-30T20:22:47.979Z,8.33
2018-01-30T20:25:16.282Z,7.93
2018-01-30T20:27:44.620Z,8.90
2018-01-30T20:30:12.856Z,8.47
2018-01-30T20:32:42.039Z,7.97
2018-01-30T20:35:10.324Z,8.27
2018-01-30T20:37:38.616Z,7.93
2018-01-30T20:40:07.610Z,8.40
2018-01-30T20:42:36.617Z,7.63
2018-01-30T20:45:04.867Z,8.37
2018-01-30T20:47:33.900Z,7.77
2018-01-30T20:50:02.203Z,7.40
2018-01-30T20:52:30.651Z,8.20
2018-01-30T20:54:59.103Z,8.10
2018-01-30T20:57:28.334Z,9.27
2018-01-30T20:59:56.831Z,7.90
2018-01-30T21:02:25.230Z,8.47
2018-01-30T21:04:53.690Z,8.53
2018-01-30T21:07:22.182Z,8.27
2018-01-30T21:09:50.652Z,10.20
2018-01-30T21:12:19.041Z,9.50
2018-01-30T21:14:47.846Z,8.80
2018-01-30T21:17:16.282Z,10.00
2018-01-30T21:19:44.688Z,11.17
2018-01-30T21:22:13.166Z,11.00
2018-01-30T21:24:41.644Z,11.57
2018-01-30T21:27:10.047Z,10.40
2018-01-30T21:29:39.328Z,12.07
2018-01-30T21:32:07.811Z,10.80
2018-01-30T21:34:36.276Z,10.60
2018-01-30T21:37:04.715Z,11.53
2018-01-30T21:39:33.959Z,8.90
2018-01-30T21:42:02.369Z,10.60
2018-01-30T21:44:30.808Z,10.83
2018-01-30T21:46:59.222Z,9.30
2018-01-30T21:49:27.676Z,8.43
2018-01-30T21:51:56.095Z,9.90
2018-01-30T21:54:24.581Z,9.00
2018-01-30T21:56:53.820Z,8.97
2018-01-30T21:59:22.296Z,8.13
2018-01-30T22:01:50.732Z,8.03
2018-01-30T22:04:19.943Z,7.13
2018-01-30T22:06:49.123Z,8.47
2018-01-30T22:09:18.361Z,7.80
2018-01-30T22:11:46.797Z,9.23
2018-01-30T22:14:15.188Z,9.43
2018-01-30T22:16:44.294Z,8.83
2018-01-30T22:19:13.371Z,12.10
2018-01-30T22:21:41.626Z,11.00
2018-01-30T22:24:09.903Z,9.80
2018-01-30T22:26:38.221Z,8.27
2018-01-30T22:29:07.237Z,10.37
2018-01-30T22:31:35.548Z,10.03
2018-01-30T22:34:03.794Z,9.73
2018-01-30T22:36:32.105Z,10.30
2018-01-30T22:39:00.363Z,10.00
2018-01-30T22:41:28.671Z,9.90
2018-01-30T22:43:58.282Z,10.00
2018-01-30T22:46:26.708Z,11.63
